sensor_id;sensor_type;location;lat;lon;timestamp;P1;durP1;ratioP1;P2;durP2;ratioP2
36747;SDS011;22716;51.556;5.080;2023-01-16T00:01:52;4.60;;;1.83;;
36747;SDS011;22716;51.556;5.080;2023-01-16T00:04:26;5.90;;;2.53;;
36747;SDS011;22716;51.556;5.080;2023-01-16T00:06:55;3.87;;;1.83;;
36747;SDS011;22716;51.556;5.080;2023-01-16T00:09:24;5.50;;;1.70;;
36747;SDS011;22716;51.556;5.080;2023-01-16T00:11:53;3.07;;;1.93;;
36747;SDS011;22716;51.556;5.080;2023-01-16T00:14:22;2.97;;;2.00;;
36747;SDS011;22716;51.556;5.080;2023-01-16T00:16:51;1.83;;;1.40;;
36747;SDS011;22716;51.556;5.080;2023-01-16T00:19:19;4.33;;;2.53;;
36747;SDS011;22716;51.556;5.080;2023-01-16T00:21:51;1.83;;;1.20;;
36747;SDS011;22716;51.556;5.080;2023-01-16T00:24:19;3.63;;;2.17;;
36747;SDS011;22716;51.556;5.080;2023-01-16T00:26:49;7.27;;;2.83;;
36747;SDS011;22716;51.556;5.080;2023-01-16T00:29:18;4.07;;;2.03;;
36747;SDS011;22716;51.556;5.080;2023-01-16T00:31:47;3.43;;;1.97;;
36747;SDS011;22716;51.556;5.080;2023-01-16T00:34:16;4.47;;;2.70;;
36747;SDS011;22716;51.556;5.080;2023-01-16T00:36:45;2.50;;;1.83;;
36747;SDS011;22716;51.556;5.080;2023-01-16T00:39:16;2.87;;;2.20;;
36747;SDS011;22716;51.556;5.080;2023-01-16T00:41:45;5.03;;;2.10;;
36747;SDS011;22716;51.556;5.080;2023-01-16T00:44:14;4.97;;;1.87;;
36747;SDS011;22716;51.556;5.080;2023-01-16T00:46:44;7.30;;;1.77;;
36747;SDS011;22716;51.556;5.080;2023-01-16T00:49:13;5.37;;;2.17;;
36747;SDS011;22716;51.556;5.080;2023-01-16T00:51:42;6.37;;;2.13;;
36747;SDS011;22716;51.556;5.080;2023-01-16T00:54:10;3.47;;;2.03;;
36747;SDS011;22716;51.556;5.080;2023-01-16T00:56:42;8.97;;;1.70;;
36747;SDS011;22716;51.556;5.080;2023-01-16T00:59:10;8.83;;;2.27;;
36747;SDS011;22716;51.556;5.080;2023-01-16T01:01:40;4.90;;;1.77;;
36747;SDS011;22716;51.556;5.080;2023-01-16T01:04:08;6.03;;;1.93;;
36747;SDS011;22716;51.556;5.080;2023-01-16T01:06:38;3.73;;;1.30;;
36747;SDS011;22716;51.556;5.080;2023-01-16T01:09:06;5.57;;;1.37;;
36747;SDS011;22716;51.556;5.080;2023-01-16T01:11:35;4.40;;;1.27;;
36747;SDS011;22716;51.556;5.080;2023-01-16T01:14:06;3.33;;;1.60;;
36747;SDS011;22716;51.556;5.080;2023-01-16T01:16:35;6.00;;;1.30;;
36747;SDS011;22716;51.556;5.080;2023-01-16T01:19:05;3.43;;;2.07;;
36747;SDS011;22716;51.556;5.080;2023-01-16T01:21:34;6.43;;;1.23;;
36747;SDS011;22716;51.556;5.080;2023-01-16T01:24:03;5.10;;;1.30;;
36747;SDS011;22716;51.556;5.080;2023-01-16T01:26:32;3.50;;;1.20;;
36747;SDS011;22716;51.556;5.080;2023-01-16T01:29:01;2.37;;;1.47;;
36747;SDS011;22716;51.556;5.080;2023-01-16T01:31:32;8.13;;;1.20;;
36747;SDS011;22716;51.556;5.080;2023-01-16T01:34:01;3.83;;;1.40;;
36747;SDS011;22716;51.556;5.080;2023-01-16T01:36:30;5.03;;;1.70;;
36747;SDS011;22716;51.556;5.080;2023-01-16T01:38:59;5.57;;;1.77;;
36747;SDS011;22716;51.556;5.080;2023-01-16T01:41:27;4.17;;;2.80;;
36747;SDS011;22716;51.556;5.080;2023-01-16T01:43:56;3.90;;;1.27;;
36747;SDS011;22716;51.556;5.080;2023-01-16T01:46:26;6.00;;;2.17;;
36747;SDS011;22716;51.556;5.080;2023-01-16T01:49:15;1.70;;;1.03;;
36747;SDS011;22716;51.556;5.080;2023-01-16T01:51:50;2.73;;;1.30;;
36747;SDS011;22716;51.556;5.080;2023-01-16T01:54:23;6.57;;;1.77;;
36747;SDS011;22716;51.556;5.080;2023-01-16T01:56:55;3.83;;;1.13;;
36747;SDS011;22716;51.556;5.080;2023-01-16T01:59:27;5.93;;;1.23;;
36747;SDS011;22716;51.556;5.080;2023-01-16T02:02:01;4.05;;;1.17;;
36747;SDS011;22716;51.556;5.080;2023-01-16T02:04:36;5.27;;;1.53;;
36747;SDS011;22716;51.556;5.080;2023-01-16T02:07:09;3.03;;;1.10;;
36747;SDS011;22716;51.556;5.080;2023-01-16T02:09:44;3.43;;;1.10;;
36747;SDS011;22716;51.556;5.080;2023-01-16T02:12:14;3.47;;;1.00;;
36747;SDS011;22716;51.556;5.080;2023-01-16T02:14:45;5.53;;;1.50;;
36747;SDS011;22716;51.556;5.080;2023-01-16T02:17:17;2.70;;;1.30;;
36747;SDS011;22716;51.556;5.080;2023-01-16T02:20:08;4.77;;;1.57;;
36747;SDS011;22716;51.556;5.080;2023-01-16T02:22:58;3.97;;;1.47;;
36747;SDS011;22716;51.556;5.080;2023-01-16T02:28:59;3.47;;;1.37;;
36747;SDS011;22716;51.556;5.080;2023-01-16T02:31:53;1.50;;;0.85;;
36747;SDS011;22716;51.556;5.080;2023-01-16T02:34:44;4.40;;;1.50;;
36747;SDS011;22716;51.556;5.080;2023-01-16T02:37:24;4.73;;;1.50;;
36747;SDS011;22716;51.556;5.080;2023-01-16T02:40:03;3.13;;;1.30;;
36747;SDS011;22716;51.556;5.080;2023-01-16T02:42:41;3.53;;;1.40;;
36747;SDS011;22716;51.556;5.080;2023-01-16T02:45:16;5.97;;;1.20;;
36747;SDS011;22716;51.556;5.080;2023-01-16T02:47:54;4.90;;;1.27;;
36747;SDS011;22716;51.556;5.080;2023-01-16T02:50:27;3.17;;;1.50;;
36747;SDS011;22716;51.556;5.080;2023-01-16T02:53:00;4.40;;;1.00;;
36747;SDS011;22716;51.556;5.080;2023-01-16T02:55:40;6.00;;;1.20;;
36747;SDS011;22716;51.556;5.080;2023-01-16T02:58:14;7.67;;;1.10;;
36747;SDS011;22716;51.556;5.080;2023-01-16T03:00:49;2.53;;;1.60;;
36747;SDS011;22716;51.556;5.080;2023-01-16T03:09:12;2.53;;;0.90;;
36747;SDS011;22716;51.556;5.080;2023-01-16T03:11:52;4.37;;;2.10;;
36747;SDS011;22716;51.556;5.080;2023-01-16T03:14:41;4.67;;;1.03;;
36747;SDS011;22716;51.556;5.080;2023-01-16T03:17:18;3.63;;;1.27;;
36747;SDS011;22716;51.556;5.080;2023-01-16T03:20:07;5.77;;;1.23;;
36747;SDS011;22716;51.556;5.080;2023-01-16T03:22:43;3.73;;;1.20;;
36747;SDS011;22716;51.556;5.080;2023-01-16T03:25:21;4.33;;;1.20;;
36747;SDS011;22716;51.556;5.080;2023-01-16T03:28:01;3.40;;;1.17;;
36747;SDS011;22716;51.556;5.080;2023-01-16T03:30:38;2.17;;;1.17;;
36747;SDS011;22716;51.556;5.080;2023-01-16T03:33:20;4.33;;;2.03;;
36747;SDS011;22716;51.556;5.080;2023-01-16T03:36:01;5.37;;;1.10;;
36747;SDS011;22716;51.556;5.080;2023-01-16T03:38:34;3.53;;;1.77;;
36747;SDS011;22716;51.556;5.080;2023-01-16T03:41:08;3.93;;;1.60;;
36747;SDS011;22716;51.556;5.080;2023-01-16T03:43:44;2.50;;;1.27;;
36747;SDS011;22716;51.556;5.080;2023-01-16T03:46:20;5.53;;;1.20;;
36747;SDS011;22716;51.556;5.080;2023-01-16T03:48:55;3.33;;;1.13;;
36747;SDS011;22716;51.556;5.080;2023-01-16T03:51:31;8.00;;;1.90;;
36747;SDS011;22716;51.556;5.080;2023-01-16T03:54:04;4.83;;;1.27;;
36747;SDS011;22716;51.556;5.080;2023-01-16T03:56:40;4.30;;;1.40;;
36747;SDS011;22716;51.556;5.080;2023-01-16T03:59:13;4.10;;;1.40;;
36747;SDS011;22716;51.556;5.080;2023-01-16T04:01:44;4.10;;;1.20;;
36747;SDS011;22716;51.556;5.080;2023-01-16T04:04:23;5.20;;;1.10;;
36747;SDS011;22716;51.556;5.080;2023-01-16T04:06:59;1.52;;;1.10;;
36747;SDS011;22716;51.556;5.080;2023-01-16T04:09:34;5.47;;;1.43;;
36747;SDS011;22716;51.556;5.080;2023-01-16T04:14:35;8.30;;;1.57;;
36747;SDS011;22716;51.556;5.080;2023-01-16T04:17:05;3.50;;;0.90;;
36747;SDS011;22716;51.556;5.080;2023-01-16T04:19:36;3.47;;;1.10;;
36747;SDS011;22716;51.556;5.080;2023-01-16T04:22:07;5.70;;;1.47;;
36747;SDS011;22716;51.556;5.080;2023-01-16T04:24:45;3.93;;;1.10;;
36747;SDS011;22716;51.556;5.080;2023-01-16T04:27:16;3.10;;;1.20;;
36747;SDS011;22716;51.556;5.080;2023-01-16T04:29:45;7.67;;;1.77;;
36747;SDS011;22716;51.556;5.080;2023-01-16T04:32:14;6.67;;;1.60;;
36747;SDS011;22716;51.556;5.080;2023-01-16T04:34:43;4.77;;;1.37;;
36747;SDS011;22716;51.556;5.080;2023-01-16T04:37:15;3.93;;;1.00;;
36747;SDS011;22716;51.556;5.080;2023-01-16T04:39:45;4.87;;;1.13;;
36747;SDS011;22716;51.556;5.080;2023-01-16T04:42:14;3.80;;;1.33;;
36747;SDS011;22716;51.556;5.080;2023-01-16T04:44:44;2.30;;;1.13;;
36747;SDS011;22716;51.556;5.080;2023-01-16T04:47:13;3.60;;;1.00;;
36747;SDS011;22716;51.556;5.080;2023-01-16T04:49:41;5.63;;;1.40;;
36747;SDS011;22716;51.556;5.080;2023-01-16T04:52:10;7.00;;;1.50;;
36747;SDS011;22716;51.556;5.080;2023-01-16T04:54:42;3.47;;;1.57;;
36747;SDS011;22716;51.556;5.080;2023-01-16T04:57:11;6.07;;;1.67;;
36747;SDS011;22716;51.556;5.080;2023-01-16T04:59:40;4.07;;;1.37;;
36747;SDS011;22716;51.556;5.080;2023-01-16T05:02:09;5.80;;;1.23;;
36747;SDS011;22716;51.556;5.080;2023-01-16T05:04:37;3.23;;;0.90;;
36747;SDS011;22716;51.556;5.080;2023-01-16T05:07:06;5.57;;;1.13;;
36747;SDS011;22716;51.556;5.080;2023-01-16T05:09:37;7.00;;;1.77;;
36747;SDS011;22716;51.556;5.080;2023-01-16T05:12:06;2.80;;;1.10;;
36747;SDS011;22716;51.556;5.080;2023-01-16T05:14:35;5.37;;;1.33;;
36747;SDS011;22716;51.556;5.080;2023-01-16T05:17:04;8.00;;;1.60;;
36747;SDS011;22716;51.556;5.080;2023-01-16T05:19:32;2.53;;;0.77;;
36747;SDS011;22716;51.556;5.080;2023-01-16T05:22:01;7.93;;;1.50;;
36747;SDS011;22716;51.556;5.080;2023-01-16T05:24:30;4.03;;;1.20;;
36747;SDS011;22716;51.556;5.080;2023-01-16T05:27:01;2.57;;;1.37;;
36747;SDS011;22716;51.556;5.080;2023-01-16T05:29:30;7.37;;;1.20;;
36747;SDS011;22716;51.556;5.080;2023-01-16T05:31:58;5.43;;;1.30;;
36747;SDS011;22716;51.556;5.080;2023-01-16T05:34:27;5.17;;;1.13;;
36747;SDS011;22716;51.556;5.080;2023-01-16T05:36:56;3.90;;;1.37;;
36747;SDS011;22716;51.556;5.080;2023-01-16T05:39:24;6.20;;;2.47;;
36747;SDS011;22716;51.556;5.080;2023-01-16T05:41:53;6.50;;;1.70;;
36747;SDS011;22716;51.556;5.080;2023-01-16T05:44:24;5.57;;;1.40;;
36747;SDS011;22716;51.556;5.080;2023-01-16T05:46:53;3.17;;;1.20;;
36747;SDS011;22716;51.556;5.080;2023-01-16T05:49:22;2.60;;;1.27;;
36747;SDS011;22716;51.556;5.080;2023-01-16T05:51:50;4.07;;;1.50;;
36747;SDS011;22716;51.556;5.080;2023-01-16T05:54:19;3.77;;;1.47;;
36747;SDS011;22716;51.556;5.080;2023-01-16T05:56:48;2.93;;;1.20;;
36747;SDS011;22716;51.556;5.080;2023-01-16T05:59:17;5.63;;;1.23;;
36747;SDS011;22716;51.556;5.080;2023-01-16T06:01:48;5.90;;;1.40;;
36747;SDS011;22716;51.556;5.080;2023-01-16T06:04:17;4.30;;;1.83;;
36747;SDS011;22716;51.556;5.080;2023-01-16T06:06:45;5.27;;;1.23;;
36747;SDS011;22716;51.556;5.080;2023-01-16T06:09:14;3.57;;;1.07;;
36747;SDS011;22716;51.556;5.080;2023-01-16T06:11:43;6.43;;;2.10;;
36747;SDS011;22716;51.556;5.080;2023-01-16T06:14:12;6.17;;;1.03;;
36747;SDS011;22716;51.556;5.080;2023-01-16T06:16:41;7.17;;;1.30;;
36747;SDS011;22716;51.556;5.080;2023-01-16T06:19:12;2.47;;;1.17;;
36747;SDS011;22716;51.556;5.080;2023-01-16T06:21:41;5.53;;;1.50;;
36747;SDS011;22716;51.556;5.080;2023-01-16T06:24:10;2.43;;;1.00;;
36747;SDS011;22716;51.556;5.080;2023-01-16T06:26:39;3.83;;;1.00;;
36747;SDS011;22716;51.556;5.080;2023-01-16T06:29:08;5.20;;;1.80;;
36747;SDS011;22716;51.556;5.080;2023-01-16T06:31:37;7.37;;;1.43;;
36747;SDS011;22716;51.556;5.080;2023-01-16T06:34:06;5.57;;;1.10;;
36747;SDS011;22716;51.556;5.080;2023-01-16T06:36:37;5.67;;;1.33;;
36747;SDS011;22716;51.556;5.080;2023-01-16T06:39:06;7.93;;;1.40;;
36747;SDS011;22716;51.556;5.080;2023-01-16T06:41:35;6.10;;;1.50;;
36747;SDS011;22716;51.556;5.080;2023-01-16T06:44:04;2.63;;;0.73;;
36747;SDS011;22716;51.556;5.080;2023-01-16T06:46:33;3.87;;;1.30;;
36747;SDS011;22716;51.556;5.080;2023-01-16T06:49:02;4.43;;;1.13;;
36747;SDS011;22716;51.556;5.080;2023-01-16T06:51:30;2.80;;;1.00;;
36747;SDS011;22716;51.556;5.080;2023-01-16T06:54:02;4.83;;;1.23;;
36747;SDS011;22716;51.556;5.080;2023-01-16T06:56:31;3.60;;;1.63;;
36747;SDS011;22716;51.556;5.080;2023-01-16T06:58:59;6.57;;;2.90;;
36747;SDS011;22716;51.556;5.080;2023-01-16T07:01:28;4.23;;;1.73;;
36747;SDS011;22716;51.556;5.080;2023-01-16T07:03:57;3.00;;;1.17;;
36747;SDS011;22716;51.556;5.080;2023-01-16T07:06:26;9.00;;;1.10;;
36747;SDS011;22716;51.556;5.080;2023-01-16T07:08:54;5.57;;;0.97;;
36747;SDS011;22716;51.556;5.080;2023-01-16T07:11:26;3.60;;;0.80;;
36747;SDS011;22716;51.556;5.080;2023-01-16T07:13:54;1.87;;;0.80;;
36747;SDS011;22716;51.556;5.080;2023-01-16T07:16:37;7.27;;;0.97;;
36747;SDS011;22716;51.556;5.080;2023-01-16T07:19:19;2.40;;;1.30;;
36747;SDS011;22716;51.556;5.080;2023-01-16T07:22:00;1.80;;;0.80;;
36747;SDS011;22716;51.556;5.080;2023-01-16T07:24:42;1.87;;;0.70;;
36747;SDS011;22716;51.556;5.080;2023-01-16T07:27:13;5.07;;;1.37;;
36747;SDS011;22716;51.556;5.080;2023-01-16T07:29:42;5.83;;;1.00;;
36747;SDS011;22716;51.556;5.080;2023-01-16T07:32:13;1.57;;;0.67;;
36747;SDS011;22716;51.556;5.080;2023-01-16T07:34:42;2.40;;;0.83;;
36747;SDS011;22716;51.556;5.080;2023-01-16T07:37:11;2.87;;;0.90;;
36747;SDS011;22716;51.556;5.080;2023-01-16T07:39:39;2.60;;;1.20;;
36747;SDS011;22716;51.556;5.080;2023-01-16T07:42:08;3.43;;;1.03;;
36747;SDS011;22716;51.556;5.080;2023-01-16T07:44:39;2.17;;;0.70;;
36747;SDS011;22716;51.556;5.080;2023-01-16T07:47:08;4.47;;;0.80;;
36747;SDS011;22716;51.556;5.080;2023-01-16T07:49:38;4.20;;;0.90;;
36747;SDS011;22716;51.556;5.080;2023-01-16T07:52:07;2.67;;;1.20;;
36747;SDS011;22716;51.556;5.080;2023-01-16T07:54:35;5.57;;;0.90;;
36747;SDS011;22716;51.556;5.080;2023-01-16T07:57:05;7.03;;;1.00;;
36747;SDS011;22716;51.556;5.080;2023-01-16T07:59:34;2.60;;;0.83;;
36747;SDS011;22716;51.556;5.080;2023-01-16T08:02:05;2.27;;;1.87;;
36747;SDS011;22716;51.556;5.080;2023-01-16T08:04:36;3.23;;;1.03;;
36747;SDS011;22716;51.556;5.080;2023-01-16T08:07:04;4.00;;;1.20;;
36747;SDS011;22716;51.556;5.080;2023-01-16T08:09:33;3.40;;;0.97;;
36747;SDS011;22716;51.556;5.080;2023-01-16T08:12:02;7.50;;;1.27;;
36747;SDS011;22716;51.556;5.080;2023-01-16T08:14:31;2.90;;;0.87;;
36747;SDS011;22716;51.556;5.080;2023-01-16T08:17:00;2.57;;;0.93;;
36747;SDS011;22716;51.556;5.080;2023-01-16T08:19:32;4.50;;;1.20;;
36747;SDS011;22716;51.556;5.080;2023-01-16T08:22:00;1.37;;;0.80;;
36747;SDS011;22716;51.556;5.080;2023-01-16T08:24:30;2.70;;;1.27;;
36747;SDS011;22716;51.556;5.080;2023-01-16T08:26:59;3.60;;;0.77;;
36747;SDS011;22716;51.556;5.080;2023-01-16T08:29:27;4.17;;;1.40;;
36747;SDS011;22716;51.556;5.080;2023-01-16T08:31:56;2.20;;;1.83;;
36747;SDS011;22716;51.556;5.080;2023-01-16T08:34:25;3.10;;;2.10;;
36747;SDS011;22716;51.556;5.080;2023-01-16T08:36:57;2.17;;;1.03;;
36747;SDS011;22716;51.556;5.080;2023-01-16T08:39:28;3.27;;;1.00;;
36747;SDS011;22716;51.556;5.080;2023-01-16T08:41:56;3.33;;;1.03;;
36747;SDS011;22716;51.556;5.080;2023-01-16T08:44:38;5.03;;;1.00;;
36747;SDS011;22716;51.556;5.080;2023-01-16T08:47:20;4.87;;;1.27;;
36747;SDS011;22716;51.556;5.080;2023-01-16T08:50:04;2.65;;;1.00;;
36747;SDS011;22716;51.556;5.080;2023-01-16T08:52:53;2.03;;;0.93;;
36747;SDS011;22716;51.556;5.080;2023-01-16T08:55:22;2.33;;;1.00;;
36747;SDS011;22716;51.556;5.080;2023-01-16T08:57:53;1.70;;;0.87;;
36747;SDS011;22716;51.556;5.080;2023-01-16T09:00:24;4.93;;;1.63;;
36747;SDS011;22716;51.556;5.080;2023-01-16T09:02:53;6.87;;;2.30;;
36747;SDS011;22716;51.556;5.080;2023-01-16T09:05:24;3.87;;;1.10;;
36747;SDS011;22716;51.556;5.080;2023-01-16T09:07:56;2.90;;;1.70;;
36747;SDS011;22716;51.556;5.080;2023-01-16T09:10:25;6.70;;;1.67;;
36747;SDS011;22716;51.556;5.080;2023-01-16T09:12:55;3.43;;;1.00;;
36747;SDS011;22716;51.556;5.080;2023-01-16T09:15:36;2.67;;;0.70;;
36747;SDS011;22716;51.556;5.080;2023-01-16T09:18:05;2.53;;;1.07;;
36747;SDS011;22716;51.556;5.080;2023-01-16T09:20:34;2.80;;;0.90;;
36747;SDS011;22716;51.556;5.080;2023-01-16T09:23:05;1.23;;;0.83;;
36747;SDS011;22716;51.556;5.080;2023-01-16T09:25:34;1.50;;;0.60;;
36747;SDS011;22716;51.556;5.080;2023-01-16T09:28:03;1.53;;;0.53;;
36747;SDS011;22716;51.556;5.080;2023-01-16T09:30:32;1.47;;;0.60;;
36747;SDS011;22716;51.556;5.080;2023-01-16T09:33:01;1.25;;;0.70;;
36747;SDS011;22716;51.556;5.080;2023-01-16T09:35:29;1.37;;;0.60;;
36747;SDS011;22716;51.556;5.080;2023-01-16T09:37:58;1.53;;;0.50;;
36747;SDS011;22716;51.556;5.080;2023-01-16T09:40:29;0.83;;;0.43;;
36747;SDS011;22716;51.556;5.080;2023-01-16T09:43:02;2.03;;;0.70;;
36747;SDS011;22716;51.556;5.080;2023-01-16T09:45:56;0.67;;;0.60;;
36747;SDS011;22716;51.556;5.080;2023-01-16T09:48:30;0.55;;;0.55;;
36747;SDS011;22716;51.556;5.080;2023-01-16T09:51:04;0.55;;;0.52;;
36747;SDS011;22716;51.556;5.080;2023-01-16T09:53:39;0.77;;;0.50;;
36747;SDS011;22716;51.556;5.080;2023-01-16T09:56:30;1.20;;;0.40;;
36747;SDS011;22716;51.556;5.080;2023-01-16T09:59:19;0.63;;;0.55;;
36747;SDS011;22716;51.556;5.080;2023-01-16T10:01:53;2.37;;;0.43;;
36747;SDS011;22716;51.556;5.080;2023-01-16T10:04:28;0.53;;;0.30;;
36747;SDS011;22716;51.556;5.080;2023-01-16T10:07:17;1.80;;;0.77;;
36747;SDS011;22716;51.556;5.080;2023-01-16T10:10:01;0.70;;;0.50;;
36747;SDS011;22716;51.556;5.080;2023-01-16T10:12:37;0.77;;;0.40;;
36747;SDS011;22716;51.556;5.080;2023-01-16T10:15:16;1.40;;;0.47;;
36747;SDS011;22716;51.556;5.080;2023-01-16T10:17:55;1.23;;;0.43;;
36747;SDS011;22716;51.556;5.080;2023-01-16T10:20:48;0.40;;;0.40;;
36747;SDS011;22716;51.556;5.080;2023-01-16T10:23:33;0.70;;;0.50;;
36747;SDS011;22716;51.556;5.080;2023-01-16T10:26:10;0.43;;;0.40;;
36747;SDS011;22716;51.556;5.080;2023-01-16T10:28:50;0.60;;;0.40;;
36747;SDS011;22716;51.556;5.080;2023-01-16T10:31:26;1.43;;;0.37;;
36747;SDS011;22716;51.556;5.080;2023-01-16T10:33:58;1.40;;;0.50;;
36747;SDS011;22716;51.556;5.080;2023-01-16T10:36:32;0.35;;;0.35;;
36747;SDS011;22716;51.556;5.080;2023-01-16T10:39:08;2.55;;;0.47;;
36747;SDS011;22716;51.556;5.080;2023-01-16T10:41:44;3.53;;;0.40;;
36747;SDS011;22716;51.556;5.080;2023-01-16T10:44:33;0.60;;;0.60;;
36747;SDS011;22716;51.556;5.080;2023-01-16T10:47:16;2.43;;;0.93;;
36747;SDS011;22716;51.556;5.080;2023-01-16T10:49:59;0.33;;;0.33;;
36747;SDS011;22716;51.556;5.080;2023-01-16T10:52:28;1.03;;;0.60;;
36747;SDS011;22716;51.556;5.080;2023-01-16T10:54:58;0.40;;;0.40;;
36747;SDS011;22716;51.556;5.080;2023-01-16T10:57:28;0.50;;;0.50;;
36747;SDS011;22716;51.556;5.080;2023-01-16T11:00:00;1.70;;;0.60;;
36747;SDS011;22716;51.556;5.080;2023-01-16T11:02:33;4.57;;;0.77;;
36747;SDS011;22716;51.556;5.080;2023-01-16T11:07:54;2.23;;;0.67;;
36747;SDS011;22716;51.556;5.080;2023-01-16T11:10:23;0.83;;;0.50;;
36747;SDS011;22716;51.556;5.080;2023-01-16T11:12:52;0.43;;;0.40;;
36747;SDS011;22716;51.556;5.080;2023-01-16T11:15:36;0.80;;;0.63;;
36747;SDS011;22716;51.556;5.080;2023-01-16T11:18:18;1.10;;;0.50;;
36747;SDS011;22716;51.556;5.080;2023-01-16T11:20:59;3.60;;;0.70;;
36747;SDS011;22716;51.556;5.080;2023-01-16T11:23:38;1.10;;;1.00;;
36747;SDS011;22716;51.556;5.080;2023-01-16T11:26:10;1.27;;;0.77;;
36747;SDS011;22716;51.556;5.080;2023-01-16T11:28:40;0.70;;;0.50;;
36747;SDS011;22716;51.556;5.080;2023-01-16T11:31:20;1.07;;;0.80;;
36747;SDS011;22716;51.556;5.080;2023-01-16T11:33:52;0.37;;;0.30;;
36747;SDS011;22716;51.556;5.080;2023-01-16T11:36:27;0.60;;;0.50;;
36747;SDS011;22716;51.556;5.080;2023-01-16T11:38:57;1.37;;;0.40;;
36747;SDS011;22716;51.556;5.080;2023-01-16T11:41:28;1.13;;;0.40;;
36747;SDS011;22716;51.556;5.080;2023-01-16T11:44:16;0.77;;;0.60;;
36747;SDS011;22716;51.556;5.080;2023-01-16T11:47:03;0.67;;;0.50;;
36747;SDS011;22716;51.556;5.080;2023-01-16T11:49:33;0.40;;;0.40;;
36747;SDS011;22716;51.556;5.080;2023-01-16T11:52:04;0.40;;;0.30;;
36747;SDS011;22716;51.556;5.080;2023-01-16T11:54:34;0.73;;;0.60;;
36747;SDS011;22716;51.556;5.080;2023-01-16T11:57:06;0.80;;;0.70;;
36747;SDS011;22716;51.556;5.080;2023-01-16T12:03:01;0.83;;;0.50;;
36747;SDS011;22716;51.556;5.080;2023-01-16T12:05:45;0.60;;;0.50;;
36747;SDS011;22716;51.556;5.080;2023-01-16T12:08:37;0.63;;;0.47;;
36747;SDS011;22716;51.556;5.080;2023-01-16T12:11:23;0.80;;;0.60;;
36747;SDS011;22716;51.556;5.080;2023-01-16T12:14:05;2.80;;;0.90;;
36747;SDS011;22716;51.556;5.080;2023-01-16T12:22:50;0.37;;;0.37;;
36747;SDS011;22716;51.556;5.080;2023-01-16T12:25:35;0.97;;;0.40;;
36747;SDS011;22716;51.556;5.080;2023-01-16T12:28:17;0.30;;;0.30;;
36747;SDS011;22716;51.556;5.080;2023-01-16T12:31:05;0.57;;;0.57;;
36747;SDS011;22716;51.556;5.080;2023-01-16T12:33:58;1.03;;;0.50;;
36747;SDS011;22716;51.556;5.080;2023-01-16T12:36:42;0.87;;;0.37;;
36747;SDS011;22716;51.556;5.080;2023-01-16T12:39:20;0.87;;;0.40;;
36747;SDS011;22716;51.556;5.080;2023-01-16T12:44:44;0.57;;;0.50;;
36747;SDS011;22716;51.556;5.080;2023-01-16T12:50:16;1.20;;;0.60;;
36747;SDS011;22716;51.556;5.080;2023-01-16T12:53:04;0.50;;;0.50;;
36747;SDS011;22716;51.556;5.080;2023-01-16T12:55:54;1.87;;;1.37;;
36747;SDS011;22716;51.556;5.080;2023-01-16T12:58:30;0.97;;;0.60;;
36747;SDS011;22716;51.556;5.080;2023-01-16T13:01:05;0.50;;;0.50;;
36747;SDS011;22716;51.556;5.080;2023-01-16T13:03:41;0.50;;;0.50;;
36747;SDS011;22716;51.556;5.080;2023-01-16T13:06:17;0.53;;;0.47;;
36747;SDS011;22716;51.556;5.080;2023-01-16T13:08:55;0.93;;;0.83;;
36747;SDS011;22716;51.556;5.080;2023-01-16T13:11:36;0.33;;;0.33;;
36747;SDS011;22716;51.556;5.080;2023-01-16T13:14:24;0.50;;;0.50;;
36747;SDS011;22716;51.556;5.080;2023-01-16T13:16:57;0.70;;;0.60;;
36747;SDS011;22716;51.556;5.080;2023-01-16T13:19:31;0.97;;;0.87;;
36747;SDS011;22716;51.556;5.080;2023-01-16T13:22:04;0.70;;;0.40;;
36747;SDS011;22716;51.556;5.080;2023-01-16T13:24:53;0.80;;;0.80;;
36747;SDS011;22716;51.556;5.080;2023-01-16T13:27:31;0.57;;;0.50;;
36747;SDS011;22716;51.556;5.080;2023-01-16T13:30:09;2.93;;;1.23;;
36747;SDS011;22716;51.556;5.080;2023-01-16T13:32:43;0.90;;;0.70;;
36747;SDS011;22716;51.556;5.080;2023-01-16T13:35:17;1.77;;;0.70;;
36747;SDS011;22716;51.556;5.080;2023-01-16T13:41:03;1.20;;;0.67;;
36747;SDS011;22716;51.556;5.080;2023-01-16T13:43:43;0.97;;;0.40;;
36747;SDS011;22716;51.556;5.080;2023-01-16T13:46:30;1.07;;;0.83;;
36747;SDS011;22716;51.556;5.080;2023-01-16T13:49:00;2.30;;;0.80;;
36747;SDS011;22716;51.556;5.080;2023-01-16T13:51:30;2.00;;;1.00;;
36747;SDS011;22716;51.556;5.080;2023-01-16T13:54:12;1.17;;;0.93;;
36747;SDS011;22716;51.556;5.080;2023-01-16T13:56:47;1.08;;;0.80;;
36747;SDS011;22716;51.556;5.080;2023-01-16T13:59:28;1.90;;;1.10;;
36747;SDS011;22716;51.556;5.080;2023-01-16T14:05:15;0.97;;;0.87;;
36747;SDS011;22716;51.556;5.080;2023-01-16T14:08:12;0.77;;;0.77;;
36747;SDS011;22716;51.556;5.080;2023-01-16T14:11:03;1.57;;;0.73;;
36747;SDS011;22716;51.556;5.080;2023-01-16T14:13:49;1.90;;;0.97;;
36747;SDS011;22716;51.556;5.080;2023-01-16T14:17:09;0.53;;;0.50;;
36747;SDS011;22716;51.556;5.080;2023-01-16T14:19:37;0.50;;;0.50;;
36747;SDS011;22716;51.556;5.080;2023-01-16T14:22:15;1.50;;;0.50;;
36747;SDS011;22716;51.556;5.080;2023-01-16T14:24:59;0.70;;;0.70;;
36747;SDS011;22716;51.556;5.080;2023-01-16T14:27:28;1.23;;;0.70;;
36747;SDS011;22716;51.556;5.080;2023-01-16T14:30:03;0.50;;;0.50;;
36747;SDS011;22716;51.556;5.080;2023-01-16T14:32:34;0.65;;;0.60;;
36747;SDS011;22716;51.556;5.080;2023-01-16T14:35:09;4.63;;;2.80;;
36747;SDS011;22716;51.556;5.080;2023-01-16T14:37:42;2.40;;;1.57;;
36747;SDS011;22716;51.556;5.080;2023-01-16T14:40:22;0.80;;;0.80;;
36747;SDS011;22716;51.556;5.080;2023-01-16T14:43:15;1.37;;;1.03;;
36747;SDS011;22716;51.556;5.080;2023-01-16T14:52:34;1.03;;;0.73;;
36747;SDS011;22716;51.556;5.080;2023-01-16T14:55:16;1.33;;;0.73;;
36747;SDS011;22716;51.556;5.080;2023-01-16T14:57:46;0.70;;;0.70;;
36747;SDS011;22716;51.556;5.080;2023-01-16T15:00:18;2.43;;;1.53;;
36747;SDS011;22716;51.556;5.080;2023-01-16T15:02:53;1.93;;;1.13;;
36747;SDS011;22716;51.556;5.080;2023-01-16T15:05:28;2.17;;;1.00;;
36747;SDS011;22716;51.556;5.080;2023-01-16T15:08:14;2.70;;;1.27;;
36747;SDS011;22716;51.556;5.080;2023-01-16T15:10:46;0.83;;;0.80;;
36747;SDS011;22716;51.556;5.080;2023-01-16T15:13:20;0.87;;;0.87;;
36747;SDS011;22716;51.556;5.080;2023-01-16T15:15:52;0.90;;;0.80;;
36747;SDS011;22716;51.556;5.080;2023-01-16T15:18:27;0.75;;;0.60;;
36747;SDS011;22716;51.556;5.080;2023-01-16T15:21:15;0.50;;;0.50;;
36747;SDS011;22716;51.556;5.080;2023-01-16T15:24:15;0.70;;;0.60;;
36747;SDS011;22716;51.556;5.080;2023-01-16T15:26:54;2.57;;;0.83;;
36747;SDS011;22716;51.556;5.080;2023-01-16T15:29:33;1.10;;;1.00;;
36747;SDS011;22716;51.556;5.080;2023-01-16T15:32:12;1.43;;;1.10;;
36747;SDS011;22716;51.556;5.080;2023-01-16T15:34:46;1.23;;;1.13;;
36747;SDS011;22716;51.556;5.080;2023-01-16T15:37:20;2.10;;;1.13;;
36747;SDS011;22716;51.556;5.080;2023-01-16T15:39:52;1.97;;;1.30;;
36747;SDS011;22716;51.556;5.080;2023-01-16T15:42:22;1.90;;;1.30;;
36747;SDS011;22716;51.556;5.080;2023-01-16T15:45:12;2.13;;;1.30;;
36747;SDS011;22716;51.556;5.080;2023-01-16T15:48:01;2.00;;;1.80;;
36747;SDS011;22716;51.556;5.080;2023-01-16T15:50:43;1.40;;;1.30;;
36747;SDS011;22716;51.556;5.080;2023-01-16T15:53:20;1.37;;;1.20;;
36747;SDS011;22716;51.556;5.080;2023-01-16T15:55:52;5.30;;;3.60;;
36747;SDS011;22716;51.556;5.080;2023-01-16T15:58:29;4.03;;;2.63;;
36747;SDS011;22716;51.556;5.080;2023-01-16T16:01:00;2.90;;;2.60;;
36747;SDS011;22716;51.556;5.080;2023-01-16T16:03:36;2.17;;;1.70;;
36747;SDS011;22716;51.556;5.080;2023-01-16T16:06:11;2.07;;;1.80;;
36747;SDS011;22716;51.556;5.080;2023-01-16T16:08:43;2.67;;;1.90;;
36747;SDS011;22716;51.556;5.080;2023-01-16T16:11:15;3.27;;;1.67;;
36747;SDS011;22716;51.556;5.080;2023-01-16T16:13:59;2.60;;;2.13;;